Time;durP1;ratioP1;P1;durP2;ratioP2;P2;SDS_P1;SDS_P2;PMS_P1;PMS_P2;Temp;Humidity;BMP_temperature;BMP_pressure;BME280_temperature;BME280_humidity;BME280_pressure;Samples;Min_cycle;Max_cycle;Signal;HPM_P1;HPM_P2
2021/11/19 00:01:00;;;;;;;12.23;7.80;;;21.60;86.60;;;;;;5073150;28;20421;-51
2021/11/19 00:03:28;;;;;;;20.63;7.80;;;21.60;85.90;;;;;;5072998;28;20383;-54
2021/11/19 00:05:55;;;;;;;16.23;7.72;;;21.60;86.50;;;;;;5072387;28;20039;-53
2021/11/19 00:08:25;;;;;;;13.48;8.35;;;21.60;85.50;;;;;;5068446;28;20036;-58
2021/11/19 00:10:55;;;;;;;12.52;7.75;;;21.70;85.80;;;;;;5072690;28;20032;-54
2021/11/19 00:13:22;;;;;;;14.35;7.55;;;21.60;85.10;;;;;;5073003;28;20032;-55
2021/11/19 00:15:50;;;;;;;12.52;7.80;;;21.70;85.20;;;;;;5072700;28;20052;-56
2021/11/19 00:18:20;;;;;;;16.98;7.78;;;21.70;85.10;;;;;;5072389;28;20387;-56
2021/11/19 00:20:47;;;;;;;13.25;6.97;;;21.80;84.70;;;;;;5072756;28;20103;-57
2021/11/19 00:23:15;;;;;;;14.20;7.43;;;21.80;85.40;;;;;;5072452;28;20028;-52
2021/11/19 00:25:43;;;;;;;12.80;7.05;;;21.80;84.80;;;;;;5072546;28;20025;-58
2021/11/19 00:28:11;;;;;;;10.68;6.10;;;21.80;85.10;;;;;;5072562;28;20029;-54
2021/11/19 00:30:39;;;;;;;10.20;6.60;;;21.90;85.20;;;;;;5072388;28;20039;-56
2021/11/19 00:33:08;;;;;;;16.77;6.60;;;21.90;84.80;;;;;;5073013;28;20024;-57
2021/11/19 00:35:38;;;;;;;11.07;7.35;;;21.90;84.50;;;;;;5072628;28;20040;-54
2021/11/19 00:38:07;;;;;;;12.18;7.30;;;21.90;83.80;;;;;;5070998;28;20098;-57
2021/11/19 00:40:47;;;;;;;8.38;6.00;;;22.00;83.70;;;;;;5072678;28;20032;-57
2021/11/19 00:43:15;;;;;;;16.88;6.47;;;22.00;84.70;;;;;;5072616;28;20403;-57
2021/11/19 00:45:43;;;;;;;12.55;6.38;;;22.10;84.70;;;;;;5072443;28;20119;-54
2021/11/19 00:48:12;;;;;;;10.73;7.10;;;22.20;84.60;;;;;;5072331;28;20432;-52
2021/11/19 00:50:56;;;;;;;10.32;6.47;;;22.20;83.30;;;;;;5072548;28;20095;-54
2021/11/19 00:53:23;;;;;;;10.30;5.93;;;22.20;83.40;;;;;;5071525;28;20141;-58
2021/11/19 00:55:51;;;;;;;9.40;6.15;;;22.30;83.40;;;;;;5072103;28;20040;-58
2021/11/19 00:58:20;;;;;;;13.15;6.78;;;22.30;83.30;;;;;;5072319;28;20074;-55
2021/11/19 01:00:54;;;;;;;11.18;6.30;;;22.30;83.10;;;;;;5072330;28;20111;-57
2021/11/19 01:03:22;;;;;;;14.18;6.85;;;22.40;84.00;;;;;;5072219;28;20056;-57
2021/11/19 01:05:51;;;;;;;12.02;7.07;;;22.50;83.60;;;;;;5071818;28;20028;-56
2021/11/19 01:08:19;;;;;;;6.88;5.13;;;22.60;82.70;;;;;;5071885;28;20498;-56
2021/11/19 01:10:48;;;;;;;10.75;6.45;;;22.70;82.50;;;;;;5072105;28;20222;-59
2021/11/19 01:13:16;;;;;;;11.10;6.05;;;22.70;81.80;;;;;;5071945;28;20043;-57
2021/11/19 01:15:53;;;;;;;12.57;7.15;;;22.90;81.90;;;;;;5072180;28;20024;-54
2021/11/19 01:18:26;;;;;;;9.35;5.38;;;22.80;81.70;;;;;;5071775;28;20090;-52
2021/11/19 01:21:05;;;;;;;10.95;5.35;;;23.00;81.20;;;;;;5072225;28;20116;-57
2021/11/19 01:23:34;;;;;;;9.07;5.47;;;23.00;81.50;;;;;;5071679;28;20016;-54
2021/11/19 01:26:20;;;;;;;10.77;6.47;;;23.20;80.50;;;;;;5071406;28;20017;-54
2021/11/19 01:28:52;;;;;;;10.35;6.15;;;23.30;80.00;;;;;;5071813;28;20105;-53
2021/11/19 01:31:24;;;;;;;6.93;4.32;;;23.40;80.10;;;;;;5071767;28;20028;-55
2021/11/19 01:33:52;;;;;;;10.02;6.15;;;23.50;80.20;;;;;;5071713;28;20033;-54
2021/11/19 01:36:20;;;;;;;8.23;4.80;;;23.50;79.20;;;;;;5071842;28;20105;-52
2021/11/19 01:38:50;;;;;;;7.40;4.40;;;23.50;79.50;;;;;;5071361;28;20028;-57
2021/11/19 01:41:26;;;;;;;9.35;5.70;;;23.70;78.70;;;;;;5071883;28;20036;-58
2021/11/19 01:43:55;;;;;;;8.52;4.57;;;23.70;78.50;;;;;;5074317;28;20394;-57
2021/11/19 01:46:26;;;;;;;10.63;5.65;;;23.90;78.10;;;;;;5075740;28;20083;-52
2021/11/19 01:48:56;;;;;;;8.57;4.70;;;23.90;77.60;;;;;;5075512;28;20028;-54
2021/11/19 01:51:43;;;;;;;7.30;4.10;;;24.10;76.90;;;;;;5075428;28;20442;-56
2021/11/19 01:54:25;;;;;;;11.20;4.97;;;24.20;76.10;;;;;;5075217;28;20044;-53
2021/11/19 01:57:14;;;;;;;7.22;3.47;;;24.30;76.30;;;;;;5075603;28;20031;-55
2021/11/19 01:59:56;;;;;;;8.55;4.50;;;24.30;75.40;;;;;;5075578;28;20475;-56
2021/11/19 02:02:31;;;;;;;9.07;5.00;;;24.50;75.40;;;;;;5075481;28;20056;-55
2021/11/19 02:05:19;;;;;;;6.05;4.18;;;24.40;75.90;;;;;;5075594;28;20054;-54
2021/11/19 02:07:53;;;;;;;7.10;4.05;;;24.50;74.80;;;;;;5075080;28;20030;-52
2021/11/19 02:10:29;;;;;;;8.48;3.25;;;24.50;74.40;;;;;;5075532;28;20372;-52
2021/11/19 02:13:26;;;;;;;8.02;4.57;;;24.70;73.40;;;;;;5075108;28;20021;-52
2021/11/19 02:15:58;;;;;;;9.27;4.13;;;24.80;73.70;;;;;;5075131;28;20029;-56
2021/11/19 02:18:35;;;;;;;;;;;24.80;72.50;;;;;;5075072;28;20028;-55
2021/11/19 02:21:08;;;;;;;5.15;4.10;;;24.90;72.50;;;;;;5074758;28;19908;-54
2021/11/19 02:23:52;;;;;;;8.50;4.20;;;24.80;74.30;;;;;;5074685;28;20062;-53
2021/11/19 02:26:28;;;;;;;6.90;4.47;;;24.90;73.00;;;;;;5074979;28;20471;-56
2021/11/19 02:28:56;;;;;;;7.50;3.70;;;24.90;73.40;;;;;;5073531;28;20043;-53
2021/11/19 02:31:32;;;;;;;4.82;3.30;;;25.10;70.60;;;;;;5074795;28;20390;-56
2021/11/19 02:34:02;;;;;;;6.38;3.55;;;25.20;69.90;;;;;;5074394;28;20032;-54
2021/11/19 02:36:41;;;;;;;6.82;3.20;;;25.10;70.40;;;;;;5073223;28;20554;-49
2021/11/19 02:39:23;;;;;;;8.38;3.20;;;25.20;71.60;;;;;;5074550;28;20480;-54
2021/11/19 02:42:03;;;;;;;6.22;3.40;;;25.30;70.00;;;;;;5074226;28;20109;-53
2021/11/19 02:44:34;;;;;;;7.70;3.05;;;25.30;70.30;;;;;;5073997;28;20052;-56
2021/11/19 02:47:06;;;;;;;6.93;2.65;;;25.20;69.10;;;;;;5073571;28;20021;-55
2021/11/19 02:49:33;;;;;;;5.70;3.40;;;25.30;71.00;;;;;;5074530;28;20090;-53
2021/11/19 02:52:02;;;;;;;5.75;2.88;;;25.30;68.90;;;;;;5073676;28;20438;-56
2021/11/19 02:54:33;;;;;;;6.95;3.88;;;25.30;71.50;;;;;;5072178;28;20035;-57
2021/11/19 02:57:02;;;;;;;3.15;2.60;;;25.20;73.40;;;;;;5073972;28;20191;-54
2021/11/19 02:59:30;;;;;;;9.35;3.10;;;25.30;72.60;;;;;;5073433;28;20044;-58
2021/11/19 03:02:01;;;;;;;4.88;1.92;;;25.20;71.50;;;;;;5073651;28;20033;-58
2021/11/19 03:04:40;;;;;;;4.82;2.70;;;25.20;70.70;;;;;;5074300;28;20063;-56
2021/11/19 03:07:07;;;;;;;8.95;3.75;;;25.40;71.60;;;;;;5072553;28;20051;-57
2021/11/19 03:09:50;;;;;;;6.63;2.90;;;25.40;72.30;;;;;;5070604;28;20037;-52
2021/11/19 03:12:21;;;;;;;4.80;2.72;;;25.30;72.90;;;;;;5074250;28;20064;-60
2021/11/19 03:14:50;;;;;;;4.20;2.80;;;25.30;72.30;;;;;;5073708;28;20032;-55
2021/11/19 03:17:19;;;;;;;5.60;2.75;;;25.50;72.30;;;;;;5073477;28;20107;-57
2021/11/19 03:19:48;;;;;;;6.13;2.35;;;25.80;67.50;;;;;;5073200;28;20033;-58
2021/11/19 03:22:19;;;;;;;5.18;2.88;;;25.90;69.80;;;;;;5073408;28;20108;-57
2021/11/19 03:24:48;;;;;;;4.60;2.75;;;25.80;69.50;;;;;;5073542;28;20211;-55
2021/11/19 03:27:17;;;;;;;6.53;2.92;;;25.80;71.10;;;;;;5072847;28;20032;-52
2021/11/19 03:29:47;;;;;;;5.25;2.78;;;25.90;68.10;;;;;;5073422;28;20036;-57
2021/11/19 03:32:19;;;;;;;4.72;2.38;;;25.90;70.00;;;;;;5073426;28;20492;-55
2021/11/19 03:34:47;;;;;;;5.20;2.35;;;25.70;70.20;;;;;;5073485;28;20024;-58
2021/11/19 03:37:15;;;;;;;4.60;2.33;;;25.80;69.50;;;;;;5071400;28;20016;-56
2021/11/19 03:39:44;;;;;;;4.10;2.33;;;26.00;69.80;;;;;;5072981;28;20037;-50
2021/11/19 03:42:13;;;;;;;5.05;2.00;;;25.90;70.20;;;;;;5072988;28;20575;-58
2021/11/19 03:44:48;;;;;;;6.18;2.35;;;25.70;71.00;;;;;;5073332;28;20024;-53
2021/11/19 03:47:20;;;;;;;7.35;2.83;;;25.60;69.70;;;;;;5073243;28;20020;-55
2021/11/19 03:49:49;;;;;;;4.38;2.78;;;25.70;68.00;;;;;;5072917;28;20386;-55
2021/11/19 03:52:21;;;;;;;3.63;2.25;;;25.90;69.00;;;;;;5072227;28;20518;-54
2021/11/19 03:54:51;;;;;;;6.72;2.22;;;25.80;70.20;;;;;;5073294;28;20021;-57
2021/11/19 03:57:20;;;;;;;3.17;1.83;;;25.80;70.50;;;;;;5073356;28;20039;-55
2021/11/19 03:59:52;;;;;;;4.22;2.20;;;25.80;70.10;;;;;;5073019;28;20063;-58
2021/11/19 04:02:22;;;;;;;7.85;2.45;;;25.80;69.30;;;;;;5073026;28;20024;-56
2021/11/19 04:04:50;;;;;;;6.63;2.70;;;25.90;68.30;;;;;;5072205;28;20424;-56
2021/11/19 04:07:18;;;;;;;5.25;2.38;;;25.80;70.10;;;;;;5054840;28;20392;-55
2021/11/19 04:09:46;;;;;;;4.35;1.98;;;25.70;70.40;;;;;;5071590;28;20024;-58
2021/11/19 04:12:16;;;;;;;5.10;2.28;;;25.70;69.80;;;;;;5072393;28;20020;-56
2021/11/19 04:14:44;;;;;;;2.63;1.90;;;25.70;70.00;;;;;;5072258;28;20024;-55
2021/11/19 04:17:12;;;;;;;4.07;2.17;;;25.60;70.30;;;;;;5072483;28;20020;-55
2021/11/19 04:19:39;;;;;;;5.60;2.08;;;25.70;69.80;;;;;;5072451;28;20041;-56
2021/11/19 04:22:12;;;;;;;4.22;2.08;;;25.70;70.60;;;;;;5070674;28;20485;-57
2021/11/19 04:24:45;;;;;;;5.40;2.70;;;25.60;71.20;;;;;;5072353;28;20059;-58
2021/11/19 04:27:13;;;;;;;3.72;2.28;;;25.60;69.60;;;;;;5072553;28;20157;-54
2021/11/19 04:29:41;;;;;;;4.70;2.20;;;25.60;70.00;;;;;;5072780;28;20336;-55
2021/11/19 04:32:09;;;;;;;4.90;2.53;;;25.70;69.50;;;;;;5072042;28;20020;-56
2021/11/19 04:34:41;;;;;;;5.97;2.60;;;25.50;70.80;;;;;;5072203;28;20384;-57
2021/11/19 04:37:09;;;;;;;7.57;2.05;;;25.50;71.10;;;;;;5070912;28;20387;-51
2021/11/19 04:39:36;;;;;;;5.50;2.90;;;25.50;71.50;;;;;;5071461;28;20036;-59
2021/11/19 04:42:04;;;;;;;4.20;2.30;;;25.40;70.90;;;;;;5071758;28;20069;-59
2021/11/19 04:44:32;;;;;;;4.28;2.22;;;25.50;71.10;;;;;;5071910;28;20028;-58
2021/11/19 04:47:00;;;;;;;3.72;2.20;;;25.50;71.80;;;;;;5072133;28;20023;-56
2021/11/19 04:49:28;;;;;;;3.42;2.13;;;25.30;71.90;;;;;;5071882;28;20040;-57
2021/11/19 04:51:56;;;;;;;3.65;2.53;;;25.40;71.80;;;;;;5071510;28;20044;-55
2021/11/19 04:54:25;;;;;;;4.00;2.10;;;25.30;72.40;;;;;;5072189;28;20032;-61
2021/11/19 04:56:54;;;;;;;8.52;3.20;;;25.20;72.70;;;;;;5071822;28;20047;-58
2021/11/19 04:59:23;;;;;;;8.18;2.60;;;25.20;72.10;;;;;;5072220;28;20036;-56
2021/11/19 05:01:54;;;;;;;4.47;2.13;;;25.20;72.70;;;;;;5070634;28;20398;-59
2021/11/19 05:04:23;;;;;;;3.10;2.05;;;25.20;72.70;;;;;;5072409;28;20028;-59
2021/11/19 05:06:50;;;;;;;3.75;2.30;;;25.20;72.70;;;;;;5072254;28;20037;-61
2021/11/19 05:09:18;;;;;;;3.55;2.30;;;25.30;72.80;;;;;;5071786;28;20060;-56
2021/11/19 05:11:51;;;;;;;6.93;2.67;;;25.20;73.30;;;;;;5071961;28;20039;-58
2021/11/19 05:14:19;;;;;;;4.68;2.13;;;25.20;73.30;;;;;;5072168;28;20513;-59
2021/11/19 05:16:47;;;;;;;2.97;2.50;;;25.30;72.70;;;;;;5073269;28;20021;-52
2021/11/19 05:19:15;;;;;;;4.00;2.15;;;25.30;73.00;;;;;;5075587;28;20033;-56
2021/11/19 05:21:44;;;;;;;5.72;2.78;;;25.20;73.40;;;;;;5076030;28;20423;-54
2021/11/19 05:24:12;;;;;;;4.30;1.80;;;25.10;73.40;;;;;;5075733;28;20033;-58
2021/11/19 05:26:42;;;;;;;4.40;2.40;;;25.30;72.90;;;;;;5076210;28;20020;-55
2021/11/19 05:29:10;;;;;;;4.00;2.30;;;25.30;73.90;;;;;;5074743;28;20021;-54
2021/11/19 05:31:38;;;;;;;5.10;2.55;;;25.10;73.20;;;;;;5074254;28;20070;-54
2021/11/19 05:34:06;;;;;;;4.10;2.47;;;25.30;72.50;;;;;;5075857;28;20036;-58
2021/11/19 05:36:34;;;;;;;4.30;1.98;;;25.20;71.90;;;;;;5075505;28;20379;-57
2021/11/19 05:39:02;;;;;;;4.88;2.15;;;25.30;70.80;;;;;;5075715;28;20044;-59
2021/11/19 05:41:29;;;;;;;3.75;1.90;;;25.20;73.30;;;;;;5075935;28;20105;-53
2021/11/19 05:43:57;;;;;;;4.45;2.50;;;25.10;72.70;;;;;;5075171;28;20029;-58
2021/11/19 05:46:28;;;;;;;4.03;1.88;;;25.10;73.60;;;;;;5075351;28;20421;-56
2021/11/19 05:48:58;;;;;;;5.00;2.65;;;25.00;74.40;;;;;;5075296;28;20362;-55
2021/11/19 05:51:28;;;;;;;7.43;2.35;;;24.90;74.50;;;;;;5075174;28;20054;-56
2021/11/19 05:53:56;;;;;;;9.38;2.40;;;25.10;73.10;;;;;;5075252;28;20420;-55
2021/11/19 05:56:24;;;;;;;3.55;1.90;;;25.00;73.40;;;;;;5075206;28;20024;-57
2021/11/19 05:58:52;;;;;;;5.57;1.73;;;24.90;74.50;;;;;;5075453;28;20050;-58
2021/11/19 06:01:21;;;;;;;5.07;2.10;;;24.90;74.90;;;;;;5074912;28;20077;-56
2021/11/19 06:03:49;;;;;;;6.30;2.50;;;24.80;75.20;;;;;;5075016;28;20108;-54
2021/11/19 06:06:18;;;;;;;4.47;2.25;;;24.80;75.40;;;;;;5074900;28;20119;-56
2021/11/19 06:08:45;;;;;;;5.50;2.72;;;24.70;75.80;;;;;;5072389;28;20028;-57
2021/11/19 06:11:28;;;;;;;4.20;2.20;;;24.80;75.50;;;;;;5074462;28;20029;-54
2021/11/19 06:14:05;;;;;;;6.43;2.22;;;24.90;75.40;;;;;;5074688;28;20020;-58
2021/11/19 06:16:40;;;;;;;11.15;2.60;;;24.80;75.30;;;;;;5075202;28;20029;-56
2021/11/19 06:19:15;;;;;;;7.63;2.80;;;24.80;75.60;;;;;;5074903;28;20040;-57
2021/11/19 06:21:48;;;;;;;6.63;2.67;;;24.70;75.70;;;;;;5074363;28;20112;-57
2021/11/19 06:24:35;;;;;;;6.68;2.45;;;24.60;76.00;;;;;;5074578;28;20117;-57
2021/11/19 06:27:02;;;;;;;7.50;2.67;;;24.50;76.30;;;;;;5074510;28;20107;-58
2021/11/19 06:29:30;;;;;;;8.85;2.92;;;24.50;76.70;;;;;;5072076;28;20036;-55
2021/11/19 06:32:00;;;;;;;9.13;2.70;;;24.40;77.10;;;;;;5074540;28;20483;-50
2021/11/19 06:34:27;;;;;;;7.95;3.13;;;24.30;77.40;;;;;;5073843;28;20066;-55
2021/11/19 06:36:55;;;;;;;9.57;3.40;;;24.20;77.80;;;;;;5074486;28;20028;-54
2021/11/19 06:39:24;;;;;;;9.05;3.00;;;24.10;78.20;;;;;;5074264;28;20032;-58
2021/11/19 06:41:52;;;;;;;10.88;3.28;;;24.10;78.70;;;;;;5074497;28;20025;-54
2021/11/19 06:44:20;;;;;;;5.00;2.38;;;24.00;79.00;;;;;;5074562;28;20029;-53
2021/11/19 06:46:47;;;;;;;10.07;3.67;;;23.90;79.50;;;;;;5074390;28;20073;-55
2021/11/19 06:49:15;;;;;;;9.02;3.45;;;23.80;79.70;;;;;;5074774;28;20031;-54
2021/11/19 06:51:43;;;;;;;9.95;3.45;;;23.80;80.10;;;;;;5074514;28;20037;-55
2021/11/19 06:54:10;;;;;;;10.05;3.28;;;23.70;80.30;;;;;;5074671;28;20066;-57
2021/11/19 06:56:38;;;;;;;11.40;3.20;;;23.70;80.70;;;;;;5074620;28;20021;-54
2021/11/19 06:59:07;;;;;;;9.10;3.78;;;23.60;80.90;;;;;;5072662;28;20041;-58
2021/11/19 07:01:35;;;;;;;9.30;3.15;;;23.60;81.20;;;;;;5073980;28;20047;-55
2021/11/19 07:04:03;;;;;;;10.88;3.08;;;23.50;81.30;;;;;;5073956;28;20056;-56
2021/11/19 07:06:31;;;;;;;9.43;3.72;;;23.50;81.50;;;;;;5074126;28;20506;-51
2021/11/19 07:08:59;;;;;;;12.52;4.38;;;23.50;81.70;;;;;;5074390;28;20347;-54
2021/11/19 07:11:28;;;;;;;8.00;3.20;;;23.40;81.90;;;;;;5073682;28;20111;-57
2021/11/19 07:13:55;;;;;;;10.63;3.90;;;23.40;82.10;;;;;;5073595;28;20412;-54
2021/11/19 07:16:25;;;;;;;8.07;3.08;;;23.30;82.20;;;;;;5072572;28;20515;-54
2021/11/19 07:18:54;;;;;;;10.32;3.20;;;23.30;82.40;;;;;;5073435;28;20391;-49
2021/11/19 07:21:23;;;;;;;8.73;2.92;;;23.20;82.60;;;;;;5073731;28;20468;-55
2021/11/19 07:23:52;;;;;;;10.18;3.13;;;23.20;82.60;;;;;;5074141;28;20028;-53
2021/11/19 07:26:19;;;;;;;11.90;3.65;;;23.10;82.80;;;;;;5073726;28;20024;-55
2021/11/19 07:28:48;;;;;;;8.73;3.08;;;23.10;82.80;;;;;;5073651;28;20471;-51
2021/11/19 07:31:16;;;;;;;8.40;3.28;;;23.10;83.00;;;;;;5072190;28;20028;-55
2021/11/19 07:33:45;;;;;;;12.63;3.42;;;23.10;83.10;;;;;;5073759;28;20031;-56
2021/11/19 07:36:15;;;;;;;8.63;2.95;;;23.00;83.30;;;;;;5073084;28;20094;-55
2021/11/19 07:38:44;;;;;;;9.85;3.55;;;23.00;83.40;;;;;;5073303;28;20385;-57
2021/11/19 07:41:14;;;;;;;9.43;2.97;;;23.00;83.60;;;;;;5073028;28;20119;-55
2021/11/19 07:43:41;;;;;;;8.10;3.38;;;22.90;83.70;;;;;;5072360;28;20020;-53
2021/11/19 07:46:12;;;;;;;10.45;3.88;;;22.80;83.80;;;;;;5072990;28;20467;-57
2021/11/19 07:48:41;;;;;;;9.48;3.60;;;22.90;84.10;;;;;;5073285;28;20125;-55
2021/11/19 07:51:14;;;;;;;11.38;3.65;;;22.80;84.10;;;;;;5072998;28;20170;-60
2021/11/19 07:53:42;;;;;;;14.98;3.38;;;22.80;84.30;;;;;;5073087;28;20399;-57
2021/11/19 07:56:12;;;;;;;11.05;4.10;;;22.70;84.30;;;;;;5072666;28;20028;-58
2021/11/19 07:58:40;;;;;;;12.23;3.78;;;22.60;84.40;;;;;;5073295;28;20039;-55
2021/11/19 08:01:09;;;;;;;12.15;4.13;;;22.70;84.70;;;;;;5073145;28;20021;-60
2021/11/19 08:03:36;;;;;;;11.23;3.38;;;22.60;84.60;;;;;;5072814;28;20119;-53
2021/11/19 08:06:06;;;;;;;12.25;4.47;;;22.60;84.80;;;;;;5072412;28;20485;-57
2021/11/19 08:08:35;;;;;;;12.07;4.80;;;22.50;84.90;;;;;;5072905;28;20020;-56
2021/11/19 08:11:06;;;;;;;12.98;4.45;;;22.50;84.80;;;;;;5073127;28;20027;-54
2021/11/19 08:13:34;;;;;;;12.25;4.63;;;22.50;84.90;;;;;;5073023;28;20040;-53
2021/11/19 08:16:02;;;;;;;11.15;4.05;;;22.40;85.00;;;;;;5072960;28;20025;-58
2021/11/19 08:18:34;;;;;;;13.52;4.88;;;22.40;84.90;;;;;;5072989;28;20032;-57
2021/11/19 08:21:03;;;;;;;14.00;4.25;;;22.40;85.30;;;;;;5072924;28;20037;-59
2021/11/19 08:23:41;;;;;;;13.27;4.45;;;22.40;85.60;;;;;;5073357;28;20032;-59
2021/11/19 08:26:16;;;;;;;11.52;4.43;;;22.30;85.20;;;;;;5073117;28;20495;-60
2021/11/19 08:28:44;;;;;;;16.27;4.63;;;22.30;85.30;;;;;;5072818;28;20025;-56
2021/11/19 08:31:15;;;;;;;15.25;4.53;;;22.20;85.70;;;;;;5073195;28;20074;-58
2021/11/19 08:33:43;;;;;;;11.10;3.73;;;22.30;85.70;;;;;;5072946;28;20032;-58
2021/11/19 08:36:12;;;;;;;9.85;3.53;;;22.20;85.90;;;;;;5072635;28;20109;-57
2021/11/19 08:38:42;;;;;;;12.45;4.03;;;22.20;85.60;;;;;;5072862;28;20487;-58
2021/11/19 08:41:12;;;;;;;12.73;3.85;;;22.20;86.50;;;;;;5073048;28;20432;-58
2021/11/19 08:43:43;;;;;;;10.77;4.35;;;22.20;86.00;;;;;;5072603;28;20025;-56
2021/11/19 08:46:18;;;;;;;10.35;3.58;;;22.10;85.90;;;;;;5072602;28;20025;-57
2021/11/19 08:48:49;;;;;;;12.68;4.10;;;22.10;86.00;;;;;;5072902;28;20033;-60
2021/11/19 08:51:20;;;;;;;14.38;4.45;;;22.10;86.20;;;;;;5070855;28;20070;-60
2021/11/19 08:53:56;;;;;;;11.05;4.00;;;22.00;86.20;;;;;;5072613;28;20052;-58
2021/11/19 08:56:25;;;;;;;12.98;3.88;;;22.00;86.40;;;;;;5073233;28;20093;-60
2021/11/19 08:58:53;;;;;;;12.98;3.95;;;22.00;86.30;;;;;;5072761;28;20033;-55
2021/11/19 09:01:22;;;;;;;7.65;3.22;;;22.00;86.40;;;;;;5073069;28;20047;-58
2021/11/19 09:03:50;;;;;;;15.70;4.75;;;22.00;86.40;;;;;;5072709;28;20073;-58
2021/11/19 09:06:20;;;;;;;14.90;4.22;;;21.90;86.60;;;;;;5072371;28;20040;-57
2021/11/19 09:08:49;;;;;;;14.02;4.25;;;21.90;86.60;;;;;;5068005;28;20310;-60
2021/11/19 09:11:20;;;;;;;13.45;4.68;;;21.90;86.70;;;;;;5072537;28;20104;-58
2021/11/19 09:13:50;;;;;;;12.82;4.03;;;21.90;86.60;;;;;;5072494;28;20044;-58
2021/11/19 09:16:21;;;;;;;12.15;3.95;;;21.90;86.70;;;;;;5072662;28;20033;-54
2021/11/19 09:19:06;;;;;;;14.52;4.43;;;21.90;86.70;;;;;;5072053;28;20032;-58
2021/11/19 09:21:46;;;;;;;12.43;4.15;;;21.90;86.60;;;;;;5072186;28;20159;-59
2021/11/19 09:24:21;;;;;;;14.75;4.30;;;21.90;86.70;;;;;;5070930;28;20115;-55
2021/11/19 09:26:57;;;;;;;10.07;3.75;;;21.90;86.70;;;;;;5072400;28;20035;-56
2021/11/19 09:29:37;;;;;;;13.13;4.32;;;21.90;86.70;;;;;;5072490;28;20025;-60
2021/11/19 09:32:06;;;;;;;12.93;4.28;;;21.80;86.40;;;;;;5072240;28;20033;-54
2021/11/19 09:34:36;;;;;;;12.60;4.60;;;21.80;86.50;;;;;;5072316;28;20016;-60
2021/11/19 09:37:11;;;;;;;12.65;4.80;;;21.80;86.40;;;;;;5072345;28;20153;-57
2021/11/19 09:39:40;;;;;;;14.63;4.53;;;21.80;86.70;;;;;;5072232;28;20487;-57
2021/11/19 09:42:32;;;;;;;12.18;4.47;;;21.80;86.60;;;;;;5072255;28;20022;-59
2021/11/19 09:45:02;;;;;;;15.75;5.07;;;21.80;86.50;;;;;;5070812;28;20054;-59
2021/11/19 09:47:51;;;;;;;13.32;4.63;;;21.80;86.50;;;;;;5071115;28;20024;-55
2021/11/19 09:50:54;;;;;;;16.10;4.60;;;21.80;86.50;;;;;;5072355;28;20467;-59
2021/11/19 09:53:46;;;;;;;10.57;3.80;;;21.80;86.40;;;;;;5071833;28;20496;-58
2021/11/19 09:56:38;;;;;;;11.68;4.80;;;21.80;86.80;;;;;;5071704;28;20028;-58
2021/11/19 09:59:24;;;;;;;14.20;4.80;;;21.80;87.00;;;;;;5072034;28;20082;-58
2021/11/19 10:02:10;;;;;;;13.30;4.20;;;21.80;87.40;;;;;;5071639;28;20182;-59
2021/11/19 10:04:46;;;;;;;16.25;5.07;;;21.80;87.40;;;;;;5074239;28;20081;-58
2021/11/19 10:07:35;;;;;;;14.82;4.68;;;21.80;87.80;;;;;;5075193;28;20036;-57
2021/11/19 10:10:26;;;;;;;14.15;4.47;;;21.70;87.50;;;;;;5074932;28;20023;-58
2021/11/19 10:13:09;;;;;;;15.30;4.65;;;21.70;87.80;;;;;;5075450;28;20021;-54
2021/11/19 10:15:48;;;;;;;14.32;4.43;;;21.80;87.80;;;;;;5075456;28;20031;-55
2021/11/19 10:18:44;;;;;;;16.70;5.03;;;21.70;87.70;;;;;;5074989;28;20029;-59
2021/11/19 10:21:15;;;;;;;16.58;4.72;;;21.70;88.00;;;;;;5075277;28;20078;-54
2021/11/19 10:23:52;;;;;;;15.93;5.10;;;21.70;88.10;;;;;;5075374;28;20090;-58
2021/11/19 10:26:33;;;;;;;13.65;4.68;;;21.70;88.10;;;;;;5075288;28;20433;-59
2021/11/19 10:29:12;;;;;;;11.20;4.28;;;21.70;88.10;;;;;;5075111;28;20029;-58
2021/11/19 10:31:40;;;;;;;13.88;4.40;;;21.70;88.00;;;;;;5075115;28;20533;-56
2021/11/19 10:34:22;;;;;;;17.95;4.38;;;21.70;88.00;;;;;;5074845;28;20028;-59
2021/11/19 10:37:17;;;;;;;14.38;4.25;;;21.70;87.90;;;;;;5075163;28;20396;-57
2021/11/19 10:40:21;;;;;;;12.48;4.50;;;21.70;87.90;;;;;;5074984;28;20109;-55
2021/11/19 10:43:22;;;;;;;13.90;4.18;;;21.60;88.00;;;;;;5075072;28;20020;-55
2021/11/19 10:46:47;;;;;;;13.20;3.78;;;21.60;88.00;;;;;;5075024;28;20024;-58
2021/11/19 10:49:49;;;;;;;15.50;4.70;;;21.60;88.10;;;;;;5074694;28;20090;-57
2021/11/19 10:52:43;;;;;;;14.47;4.93;;;21.60;88.00;;;;;;5074736;28;20059;-56
2021/11/19 10:55:38;;;;;;;13.73;4.50;;;21.60;88.10;;;;;;5074236;28;20735;-57
2021/11/19 10:58:24;;;;;;;15.00;4.78;;;21.60;88.00;;;;;;5074369;28;20112;-58
2021/11/19 11:01:00;;;;;;;14.25;4.53;;;21.60;88.10;;;;;;5074432;28;20111;-55
2021/11/19 11:03:52;;;;;;;12.95;4.25;;;21.60;88.10;;;;;;5074834;28;20052;-53
2021/11/19 11:06:29;;;;;;;;;;;21.60;88.70;;;;;;5074137;28;20029;-51
2021/11/19 11:09:20;;;;;;;13.98;4.88;;;21.50;88.00;;;;;;5074526;28;20370;-56
2021/11/19 11:11:58;;;;;;;12.32;4.00;;;21.50;88.10;;;;;;5074389;28;20086;-59
2021/11/19 11:14:32;;;;;;;13.73;4.63;;;21.50;88.10;;;;;;5073760;28;20020;-55
2021/11/19 11:17:19;;;;;;;11.95;3.88;;;21.60;88.10;;;;;;5074454;28;20021;-57
2021/11/19 11:19:48;;;;;;;15.63;4.82;;;21.50;88.00;;;;;;5073902;28;20047;-57
2021/11/19 11:22:21;;;;;;;9.15;3.70;;;21.60;88.10;;;;;;5073552;28;20032;-59
2021/11/19 11:25:03;;;;;;;12.02;4.63;;;21.60;88.20;;;;;;5074167;28;20447;-53
2021/11/19 11:27:47;;;;;;;14.52;4.70;;;21.50;88.10;;;;;;5074060;28;20149;-56
2021/11/19 11:30:21;;;;;;;11.70;4.00;;;21.50;88.00;;;;;;5073169;28;20070;-58
2021/11/19 11:32:59;;;;;;;9.32;3.53;;;21.50;88.10;;;;;;5073930;28;20024;-56
2021/11/19 11:35:43;;;;;;;15.05;5.22;;;21.50;88.10;;;;;;5073691;28;20024;-58
2021/11/19 11:38:10;;;;;;;15.90;5.10;;;21.50;88.10;;;;;;5073627;28;20035;-57
2021/11/19 11:41:01;;;;;;;12.75;3.90;;;21.50;88.10;;;;;;5073781;28;20097;-55
2021/11/19 11:43:45;;;;;;;15.32;4.45;;;21.50;88.10;;;;;;5073588;28;20017;-58
2021/11/19 11:47:18;;;;;;;11.52;3.95;;;21.50;88.10;;;;;;5073281;28;20032;-56
2021/11/19 11:49:52;;;;;;;14.40;4.35;;;21.50;88.00;;;;;;5011696;28;20025;-58
2021/11/19 11:52:28;;;;;;;14.27;4.55;;;21.50;88.10;;;;;;5065158;28;20052;-52
2021/11/19 11:55:13;;;;;;;11.93;3.83;;;21.50;88.10;;;;;;5072344;28;20048;-54
2021/11/19 11:57:46;;;;;;;12.93;3.88;;;21.50;88.10;;;;;;5073351;28;20099;-56
2021/11/19 12:00:55;;;;;;;17.15;4.55;;;21.50;88.10;;;;;;5072912;28;20044;-53
2021/11/19 12:04:09;;;;;;;12.98;4.38;;;21.50;88.10;;;;;;5073068;28;20021;-54
2021/11/19 12:07:09;;;;;;;14.85;4.55;;;21.50;88.00;;;;;;5072818;28;20035;-54
2021/11/19 12:09:51;;;;;;;11.77;3.90;;;21.40;88.00;;;;;;5069207;28;20040;-56
2021/11/19 12:12:51;;;;;;;12.48;4.43;;;21.50;88.10;;;;;;5071735;28;20020;-53
2021/11/19 12:15:38;;;;;;;13.27;4.03;;;21.50;88.10;;;;;;5072268;28;20055;-53
2021/11/19 12:18:30;;;;;;;12.20;4.15;;;21.40;88.00;;;;;;5072566;28;20031;-55
2021/11/19 12:21:27;;;;;;;14.40;4.05;;;21.40;88.10;;;;;;5072811;28;20029;-57
2021/11/19 12:23:58;;;;;;;13.93;4.53;;;21.40;88.00;;;;;;5072648;28;20024;-55
2021/11/19 12:26:32;;;;;;;14.55;5.28;;;21.40;88.10;;;;;;5072239;28;20058;-52
2021/11/19 12:29:22;;;;;;;10.40;3.83;;;21.40;88.00;;;;;;5073112;28;20116;-57
2021/11/19 12:32:10;;;;;;;12.43;3.67;;;21.40;87.90;;;;;;5073155;28;20028;-56
2021/11/19 12:34:49;;;;;;;11.23;4.10;;;21.40;88.00;;;;;;5072770;28;20031;-56
2021/11/19 12:37:36;;;;;;;12.68;4.38;;;21.40;88.10;;;;;;5072589;28;20043;-57
2021/11/19 12:40:42;;;;;;;13.82;4.70;;;21.40;88.10;;;;;;5072423;28;20044;-51
2021/11/19 12:43:28;;;;;;;12.95;3.70;;;21.40;88.00;;;;;;5072793;28;20081;-54
2021/11/19 12:46:19;;;;;;;11.85;4.22;;;21.40;88.00;;;;;;5072833;28;20127;-58
2021/11/19 12:49:10;;;;;;;15.98;4.55;;;21.40;88.00;;;;;;5073120;28;20028;-52
2021/11/19 12:51:43;;;;;;;12.52;3.97;;;21.40;88.10;;;;;;5072554;28;20021;-56
2021/11/19 12:54:44;;;;;;;16.50;4.18;;;21.40;88.10;;;;;;5072592;28;20100;-54
2021/11/19 12:57:48;;;;;;;12.32;3.60;;;21.30;88.00;;;;;;5072715;28;20111;-55
2021/11/19 13:00:38;;;;;;;12.45;4.00;;;21.30;88.10;;;;;;5071172;28;20376;-56
2021/11/19 13:03:41;;;;;;;12.15;4.07;;;21.30;88.10;;;;;;5072767;28;20032;-54
2021/11/19 13:06:18;;;;;;;15.35;4.40;;;21.40;88.20;;;;;;5072334;28;20507;-55
2021/11/19 13:08:50;;;;;;;10.45;3.85;;;21.30;88.10;;;;;;5073219;28;20025;-56
2021/11/19 13:11:35;;;;;;;13.55;3.92;;;21.40;88.10;;;;;;5073028;28;20059;-56
2021/11/19 13:14:24;;;;;;;14.10;4.28;;;21.40;88.10;;;;;;5072717;28;20032;-57
2021/11/19 13:16:54;;;;;;;11.00;4.07;;;21.30;88.10;;;;;;5072904;28;20024;-58
2021/11/19 13:19:32;;;;;;;11.00;3.85;;;21.30;88.20;;;;;;5072599;28;20367;-56
2021/11/19 13:22:12;;;;;;;11.05;4.28;;;21.40;88.10;;;;;;5072764;28;20040;-58